Ride Results

Far-A-Way Monday (09-04-2007)
Ride distance: 84.0 km

Outcomes - Far-A-Way Monday (09-04-2007)
Division No. of Entries Retired / DNE Completed Withdrawn Ineligible V/O Percentage Completed
HW 6 - 6 - - - 100.00%
MW 25 - 19 2 - 4 76.00%
LW 12 - 9 - - 3 75.00%
JN 10 - 7 2 - 1 70.00%
Totals 53 - 41 4 - 8 77.36%
Results - Far-A-Way Monday (09-04-2007)
No. Rider Horse Place Time Leg Speeds Total
Km/Hr
H/R bpm
Heavyweight
149 David Horton Eskdale Espirique 1 6:28:00 15.6, 10.7 12.99 32, 48, 51 (Avg:49)
139 Matthew Sample Brookleigh Ricardo 1 6:28:00 14.6, 11.3 12.99 35, 46, 47 (Avg:46)
155 Elizabeth Paton Freelance Gaytu Boysey 3 6:45:00 14.9, 10.3 12.44 36, 49, 52 (Avg:50)
116 Mark Nimon Abbeywood Solitare 4 7:06:00 14.9, 9.4 11.83 59, 53, 58 (Avg:55)
146 Alwyn Torenbeek Coal Dust 4 7:06:00 15.6, 9.1 11.83 40, 52, 60 (Avg:56)
151 Louis Lintner Mingara Samson 6 7:39:00 12.8, 9.3 10.98 35, 40, 46 (Avg:43)
Middleweight
162 Raewyn Carter Mt Eerwah Siridion 1 5:57:00 15.0, 13.1 14.12 34, 42, 50 (Avg:46)
161 Gayle Holmes Die Kinder Lunar Eclipse 2 5:58:00 15.0, 13.0 14.08 34, 44, 54 (Avg:49)
114 Stephen Gray Ashraf Sparkling Panache 3 6:28:00 14.9, 11.1 12.99 36, 51, 52 (Avg:51)
131 Derek Armitage Niarob Ngym-El-Sadat 4 6:31:00 14.3, 11.4 12.89 32, 51, 52 (Avg:51)
132 Carmel Trevorrow Moorah Park Mickerby 4 6:31:00 14.3, 11.4 12.89 35, 47, 52 (Avg:49)
138 Michael Taylor Brookleigh Maestro 6 6:36:00 14.6, 10.9 12.73 41, 53, 59 (Avg:56)
156 Peter Birch Hillbrae May 7 6:45:00 14.9, 10.3 12.44 35, 44, 54 (Avg:49)
133 Adrian Brickley Riverdance Nazareth 8 6:46:00 14.0, 10.8 12.41 34, 53, 53 (Avg:53)
135 Vicki Prentice El Rebel Stimulator 9 7:45:00 14.3, 8.3 10.84 38, 54, 60 (Avg:57)
154 Brook Sample Brookleigh Mozart 10 7:47:00 13.8, 8.5 10.79 38, 50, 47 (Avg:48)
124 Mark Grogan Raaward Kasmin 11 7:49:00 11.1, 10.3 10.75 38, 41, 46 (Avg:43)
111 Dave Dennis Stussy 12 8:11:00 11.4, 9.1 10.26 53, 48, 52 (Avg:50)
140 Duncan Boyd Brookleigh Kentara 13 8:17:00 10.9, 9.3 10.14 32, 42, 48 (Avg:45)
158 Simone Krahnen Kyuna Cherakee 14 8:19:00 10.6, 9.5 10.10 38, 43, 52 (Avg:47)
160 Ute Jordan Matta Mia Ademi 15 8:25:00 11.7, 8.4 9.98 44, 43, 60 (Avg:51)
120 Keisuke Goda Splendacrest Perfection 16 8:28:00 10.4, 9.3 9.92 38, 49, 53 (Avg:51)
152 Jaimee Foulsham Davlin Park Sultan 17 8:32:00 11.4, 8.3 9.84 52, 48, 54 (Avg:51)
142 Penny Toft Harriet 17 8:32:00 11.4, 8.3 9.84 31, 34, 43 (Avg:38)
126 Jo Weismann M. Fiass 17 8:32:00 11.4, 8.3 9.84 41, 45, 52 (Avg:48)
137 Judy Battams Nangamba Alisaar Heart Rate L2 0:00:00 15.6, 12.5 - 38, 52, 66 (Avg:59)
130 Tony Bateman Barbarella Heart Rate L1 0:00:00 13.1 - 39, 61 (Avg:61)
123 Di Kupsch Nangana Rivah Queen Lame L1 0:00:00 11.6 - 33, 42 (Avg:42)
147 Kerrie McAuliffe Rosie O'Day Lame L1 0:00:00 12.7 - 38, 44 (Avg:44)
148 Tami Parnell Gleniph Saaminski Withdrawn P/R 0:00:00 - - 40
115 Robert Sutton Sherid Withdrawn P/R 0:00:00 - - 39
Lightweight
163 Wendy Chambers Rokewood Shasada 1 6:53:00 13.5, 10.8 12.20 42, 46, 48 (Avg:47)
144 Kaylea Maher Camelot Retreat Ashadi 2 7:49:00 11.1, 10.3 10.75 36, 36, 39 (Avg:37)
122 Shelley-ann Kimber Mylex Sultan 3 8:17:00 10.9, 9.3 10.14 32, 39, 44 (Avg:41)
121 Katherine Ryan Meltharina Mars 3 8:17:00 10.9, 9.3 10.14 37, 47, 47 (Avg:47)
112 Amanda Powell Shonavale Kamilla 5 8:28:00 10.4, 9.3 9.92 38, 44, 48 (Avg:46)
134 Rebecca Forgan Damanda Kaaluha 6 8:30:00 10.0, 9.6 9.88 33, 50, 55 (Avg:52)
118 Sachiko Murai Tarwarri Sharhim 7 8:32:00 11.4, 8.3 9.84 39, 43, 50 (Avg:46)
153 Shaylee Nicholls Noble Roy 8 8:37:00 10.5, 8.9 9.75 29, 43, 53 (Avg:48)
143 Brooke Warner Rhiannons Nimbi 8 8:37:00 10.5, 8.9 9.75 38, 48, 48 (Avg:48)
145 Christine Barlow Sa-har Shetari Heart Rate L1 0:00:00 10.3 - 38, 59 (Avg:59)
128 Bec Miller Reesville Saban Heart Rate L1 0:00:00 14.9 - 37, 58 (Avg:58)
119 Terri Anderson Tobinlee Ishmale Lame P/R 0:00:00 - - 33
Junior
117 Lisa Stoffel Eljannah Wafa 1 6:49:00 13.5, 11.0 12.32 30, 42, 43 (Avg:42)
136 Lainie Zischke Star of Bell 2 7:55:00 12.8, 8.7 10.61 41, 48, 49 (Avg:48)
110 Lindsay Dennis Ezee 3 8:11:00 11.4, 9.1 10.26 38, 40, 45 (Avg:42)
159 Connor Krahnen Wywurri Starlight 4 8:19:00 10.6, 9.5 10.10 53, 46, 52 (Avg:49)
129 Jessyca Dakin Ffire Storm 5 8:32:00 11.4, 8.3 9.84 38, 42, 49 (Avg:45)
125 Jasmine Shields Allira Park Wings Of Fire 6 8:33:00 11.4, 8.3 9.82 29, 50, 58 (Avg:54)
127 Haley Jean Steuer Porcelain Doll 6 8:33:00 11.4, 8.3 9.82 40, 51, 55 (Avg:53)
113 Ingrid Ambrosiussen Shaah Lame L2 0:00:00 14.8, 9.9 - 50, 45, 48 (Avg:46)
157 Erin Krahnen Rodborough Bey Abdul Withdrawn L1 0:00:00 - - 34, 41 (Avg:41)
141 Alexandra Toft Bramall Jazzmin Withdrawn P/R 0:00:00 - - 32